Lancaster Airport Lancaster US
ICAO: KLNS
IATA: LNS
Category: Medium
Scheduled Services: Yes

Elevation: 403 ft
TransAlt. 18000 ft.

Airport Communications:
HARRISBURG APP/DEP:126.45
ATIS:125.675
CTAF:120.9
GND:121.8
WILLIAMSPORT RDO:117.3
TWR:120.9
UNICOM:122.95

KLNS Zoom In..

Runways:

(A) RW 08 length 6933 ft width 150 ft
ILS 108.70 / hdg 77

(B) RW 13 length 4102 ft width 100 ft
---- / hdg 128

(C) RW 26 length 6933 ft width 150 ft
---- / hdg 257

(D) RW 31 length 4102 ft width 100 ft
---- / hdg 308

Location; KLNS
Day. 25 / Time. 09.53 Zulu
* Altimeter: 29.86
* Temperature: 12° c. 53.6°f.
* Wind from: 030° Speed 05 kn.
Dewpoint: 12° c.
Visibility: 4 Statute Miles.
Clouds: Broken 500 ft.
Clouds: Overcast 1300 ft.
Conditions: Rain.Conditions: Mist.

KLNS 250953Z 03005KT 4SM RA BR BKN005 OVC013 12/12 A2986 RMK AO2 SLP109 P0011 T01220117


Wind From 030°
Speed 05 kn.

  YouTube Music Video
 
jpsmedia.com for Web Design  worldairports.se 2018   terms of use